KOJC/OJC METAR and TAF weather

Enter ICAO airport designator
Station Type Date Time Source
KOJC METAR 2021/09/19 12:53 UTC NOAA

KOJC 191253Z 00000KT 10SM CLR 21/19 A3005 RMK AO2 SLP167 T02060189


Station Type Date Time Source
KOJC Decoded METAR 2021/09/19 12:53 UTC NOAA

OLATHE JOHNSON CO EXECUTIVE, KS, United States (KOJC) 38-50N 94-44W 326M
Sep 19, 2021 - 08:53 AM EDT / 2021.09.19 1253 UTC
Wind: Calm:0
Visibility: 10 mile(s):0
Sky conditions: clear
Temperature: 69.1 F (20.6 C)
Dew Point: 66.0 F (18.9 C)
Relative Humidity: 89%
Pressure (altimeter): 30.05 in. Hg (1017 hPa)
ob: KOJC 191253Z 00000KT 10SM CLR 21/19 A3005 RMK AO2 SLP167 T02060189
cycle: 13

Station Type Date Time Source
KOJC TAF UTC NOAA

Error!

Example: see airport list